createdAt,value
2022-08-30T00:03:46.999Z,99330.09
2022-08-30T00:06:16.357Z,99324.91
2022-08-30T00:08:44.343Z,99327.47
2022-08-30T00:11:14.947Z,99324.13
2022-08-30T00:13:44.629Z,99322.16
2022-08-30T00:16:12.618Z,99323.81
2022-08-30T00:18:40.769Z,99329.31
2022-08-30T00:21:08.509Z,99325.75
2022-08-30T00:23:35.763Z,99324.94
2022-08-30T00:26:03.541Z,99329.84
2022-08-30T00:28:30.698Z,99329.94
2022-08-30T00:30:58.160Z,99336.47
2022-08-30T00:33:25.438Z,99333.75
2022-08-30T00:35:52.383Z,99332.78
2022-08-30T00:38:19.588Z,99335.22
2022-08-30T00:40:46.846Z,99334.28
2022-08-30T00:43:36.691Z,99341.66
2022-08-30T00:46:07.870Z,99338.03
2022-08-30T00:48:40.772Z,99338.03
2022-08-30T00:51:11.579Z,99336.50
2022-08-30T00:53:44.660Z,99336.81
2022-08-30T00:56:12.246Z,99329.44
2022-08-30T00:58:45.593Z,99334.03
2022-08-30T01:01:13.222Z,99329.00
2022-08-30T01:03:42.164Z,99329.78
2022-08-30T01:06:09.476Z,99334.88
2022-08-30T01:08:36.711Z,99322.56
2022-08-30T01:11:05.142Z,99315.59
2022-08-30T01:13:35.367Z,99324.25
2022-08-30T01:16:03.626Z,99319.78
2022-08-30T01:18:32.254Z,99320.59
2022-08-30T01:21:08.634Z,99325.63
2022-08-30T01:23:39.503Z,99328.97
2022-08-30T01:26:08.231Z,99332.44
2022-08-30T01:28:35.735Z,99318.44
2022-08-30T01:31:03.396Z,99333.38
2022-08-30T01:33:31.025Z,99333.28
2022-08-30T01:36:04.495Z,99331.41
2022-08-30T01:38:36.855Z,99334.06
2022-08-30T01:41:19.786Z,99329.03
2022-08-30T01:43:47.774Z,99333.38
2022-08-30T01:46:16.817Z,99331.59
2022-08-30T01:48:50.199Z,99329.78
2022-08-30T01:51:22.707Z,99326.16
2022-08-30T01:53:50.011Z,99323.53
2022-08-30T01:56:18.064Z,99323.56
2022-08-30T01:58:45.643Z,99325.22
2022-08-30T02:01:15.009Z,99333.84
2022-08-30T02:03:44.571Z,99329.31
2022-08-30T02:06:15.782Z,99331.84
2022-08-30T02:08:43.822Z,99328.34
2022-08-30T02:11:12.222Z,99331.84
2022-08-30T02:13:41.535Z,99334.50
2022-08-30T02:16:11.521Z,99335.28
2022-08-30T02:18:41.892Z,99328.19
2022-08-30T02:21:10.022Z,99330.88
2022-08-30T02:23:37.455Z,99335.28
2022-08-30T02:26:05.483Z,99333.41
2022-08-30T02:28:32.772Z,99327.31
2022-08-30T02:31:00.840Z,99335.31
2022-08-30T02:33:28.043Z,99337.00
2022-08-30T02:35:56.313Z,99340.56
2022-08-30T02:38:24.395Z,99338.78
2022-08-30T02:40:51.984Z,99336.94
2022-08-30T02:43:19.072Z,99339.47
2022-08-30T02:45:46.096Z,99352.94
2022-08-30T02:48:13.261Z,99350.31
2022-08-30T02:50:46.033Z,99347.66
2022-08-30T02:53:16.400Z,99344.91
2022-08-30T02:55:44.222Z,99348.38
2022-08-30T02:58:11.644Z,99349.22
2022-08-30T03:00:39.562Z,99336.94
2022-08-30T03:03:07.616Z,99349.16
2022-08-30T03:05:35.345Z,99352.66
2022-08-30T03:08:07.392Z,99351.91
2022-08-30T03:10:34.552Z,99355.72
2022-08-30T03:13:01.947Z,99352.22
2022-08-30T03:15:29.185Z,99347.25
2022-08-30T03:17:56.712Z,99343.94
2022-08-30T03:20:24.292Z,99351.19
2022-08-30T03:22:52.182Z,99352.03
2022-08-30T03:25:23.234Z,99354.66
2022-08-30T03:27:50.907Z,99357.34
2022-08-30T03:30:20.384Z,99358.34
2022-08-30T03:32:48.355Z,99355.47
2022-08-30T03:35:16.983Z,99349.31
2022-08-30T03:37:45.024Z,99353.50
2022-08-30T03:40:14.289Z,99348.34
2022-08-30T03:42:43.324Z,99355.59
2022-08-30T03:45:11.827Z,99347.84
2022-08-30T03:47:38.856Z,99346.31
2022-08-30T03:50:10.352Z,99345.50
2022-08-30T03:52:37.463Z,99351.34
2022-08-30T03:55:05.243Z,99351.34
2022-08-30T03:57:32.612Z,99356.66
2022-08-30T04:00:01.626Z,99354.69
2022-08-30T04:02:29.355Z,99359.00
2022-08-30T04:04:56.307Z,99359.75
2022-08-30T04:07:23.227Z,99364.94
2022-08-30T04:09:50.124Z,99361.81
2022-08-30T04:12:18.412Z,99360.69
2022-08-30T04:14:49.815Z,99365.72
2022-08-30T04:17:16.683Z,99364.09
2022-08-30T04:19:43.611Z,99371.91
2022-08-30T04:22:10.503Z,99372.81
2022-08-30T04:24:38.625Z,99378.06
2022-08-30T04:27:05.811Z,99385.63
2022-08-30T04:29:33.764Z,99388.91
2022-08-30T04:32:01.414Z,99389.63
2022-08-30T04:34:28.570Z,99393.75
2022-08-30T04:36:55.622Z,99392.69
2022-08-30T04:39:22.894Z,99406.56
2022-08-30T04:41:49.883Z,99400.31
2022-08-30T04:44:19.091Z,99397.53
2022-08-30T04:46:46.692Z,99401.88
2022-08-30T04:49:14.463Z,99403.34
2022-08-30T04:51:41.673Z,99404.16
2022-08-30T04:54:08.714Z,99406.75
2022-08-30T04:56:35.894Z,99409.41
2022-08-30T04:59:03.583Z,99408.53
2022-08-30T05:01:35.266Z,99401.38
2022-08-30T05:04:14.324Z,99411.00
2022-08-30T05:06:41.953Z,99409.19
2022-08-30T05:09:09.082Z,99409.81
2022-08-30T05:11:36.144Z,99404.53
2022-08-30T05:14:03.132Z,99417.63
2022-08-30T05:16:30.341Z,99412.94
2022-08-30T05:18:58.239Z,99418.09
2022-08-30T05:21:27.607Z,99418.81
2022-08-30T05:24:00.292Z,99430.16
2022-08-30T05:26:33.473Z,99415.13
2022-08-30T05:29:04.074Z,99424.72
2022-08-30T05:31:35.802Z,99425.44
2022-08-30T05:34:04.486Z,99422.63
2022-08-30T05:36:34.430Z,99421.63
2022-08-30T05:39:01.552Z,99420.88
2022-08-30T05:41:28.925Z,99430.22
2022-08-30T05:44:09.124Z,99438.00
2022-08-30T05:46:37.349Z,99436.06
2022-08-30T05:49:06.678Z,99429.81
2022-08-30T05:51:36.023Z,99434.78
2022-08-30T05:54:10.324Z,99435.44
2022-08-30T05:56:39.375Z,99436.97
2022-08-30T05:59:07.594Z,99435.00
2022-08-30T06:01:44.027Z,99440.03
2022-08-30T06:04:12.073Z,99446.94
2022-08-30T06:06:41.434Z,99444.88
2022-08-30T06:09:10.505Z,99451.84
2022-08-30T06:11:38.327Z,99442.88
2022-08-30T06:14:06.095Z,99438.44
2022-08-30T06:16:33.792Z,99449.78
2022-08-30T06:19:00.990Z,99447.03
2022-08-30T06:21:37.302Z,99436.97
2022-08-30T06:24:06.438Z,99443.13
2022-08-30T06:26:38.459Z,99445.78
2022-08-30T06:29:05.698Z,99450.69
2022-08-30T06:31:34.316Z,99439.09
2022-08-30T06:34:02.011Z,99437.22
2022-08-30T06:36:29.167Z,99449.41
2022-08-30T06:38:58.717Z,99448.31
2022-08-30T06:41:29.336Z,99455.00
2022-08-30T06:43:57.463Z,99453.81
2022-08-30T06:46:30.196Z,99458.81
2022-08-30T06:48:57.529Z,99447.16
2022-08-30T06:51:30.692Z,99456.00
2022-08-30T06:53:58.921Z,99453.09
2022-08-30T06:56:27.695Z,99456.94
2022-08-30T06:58:55.072Z,99458.25
2022-08-30T07:01:27.593Z,99450.16
2022-08-30T07:03:55.718Z,99454.97
2022-08-30T07:06:24.734Z,99456.81
2022-08-30T07:08:56.003Z,99453.81
2022-08-30T07:11:30.155Z,99453.38
2022-08-30T07:13:57.489Z,99449.19
2022-08-30T07:16:24.798Z,99452.19
2022-08-30T07:18:51.987Z,99446.22
2022-08-30T07:21:25.696Z,99445.50
2022-08-30T07:23:53.750Z,99450.91
2022-08-30T07:26:27.717Z,99447.94
2022-08-30T07:28:56.634Z,99439.34
2022-08-30T07:31:24.679Z,99450.31
2022-08-30T07:33:52.916Z,99442.25
2022-08-30T07:36:22.041Z,99445.50
2022-08-30T07:38:53.058Z,99443.59
2022-08-30T07:41:24.146Z,99452.47
2022-08-30T07:43:51.238Z,99457.00
2022-08-30T07:46:19.701Z,99456.94
2022-08-30T07:48:47.104Z,99462.81
2022-08-30T07:51:18.370Z,99461.22
2022-08-30T07:53:45.795Z,99453.47
2022-08-30T07:56:13.617Z,99465.63
2022-08-30T07:58:40.654Z,99467.19
2022-08-30T08:01:10.224Z,99473.44
2022-08-30T08:03:40.104Z,99473.59
2022-08-30T08:06:08.368Z,99473.63
2022-08-30T08:08:36.194Z,99476.53
2022-08-30T08:11:31.672Z,99477.34
2022-08-30T08:14:00.434Z,99475.31
2022-08-30T08:16:29.436Z,99477.75
2022-08-30T08:18:56.974Z,99473.81
2022-08-30T08:21:25.904Z,99473.44
2022-08-30T08:23:52.808Z,99476.53
2022-08-30T08:26:21.154Z,99474.09
2022-08-30T08:28:48.396Z,99477.06
2022-08-30T08:31:21.924Z,99478.00
2022-08-30T08:33:52.512Z,99481.00
2022-08-30T08:36:19.510Z,99476.50
2022-08-30T08:38:46.740Z,99484.84
2022-08-30T08:41:39.688Z,99473.47
2022-08-30T08:44:14.647Z,99475.88
2022-08-30T08:46:49.528Z,99476.53
2022-08-30T08:49:16.941Z,99486.09
2022-08-30T08:52:20.959Z,99480.00
2022-08-30T08:54:59.099Z,99482.75
2022-08-30T08:57:28.507Z,99477.94
2022-08-30T08:59:55.562Z,99489.38
2022-08-30T09:02:29.697Z,99487.91
2022-08-30T09:05:00.954Z,99484.94
2022-08-30T09:07:32.474Z,99490.31
2022-08-30T09:10:00.841Z,99491.44
2022-08-30T09:12:28.590Z,99498.81
2022-08-30T09:15:02.876Z,99491.19
2022-08-30T09:17:30.060Z,99488.78
2022-08-30T09:19:59.020Z,99484.28
2022-08-30T09:22:46.631Z,99489.19
2022-08-30T09:25:13.671Z,99487.22
2022-08-30T09:27:41.824Z,99484.63
2022-08-30T09:30:20.134Z,99480.09
2022-08-30T09:32:59.605Z,99480.59
2022-08-30T09:35:37.257Z,99479.72
2022-08-30T09:38:08.515Z,99481.69
2022-08-30T09:40:40.018Z,99480.31
2022-08-30T09:43:17.983Z,99472.16
2022-08-30T09:46:01.132Z,99481.94
2022-08-30T09:48:45.759Z,99476.88
2022-08-30T09:51:15.303Z,99483.75
2022-08-30T09:54:18.500Z,99473.34
2022-08-30T09:57:12.713Z,99467.06
2022-08-30T09:59:52.047Z,99469.91
2022-08-30T10:02:51.044Z,99470.91
2022-08-30T10:05:49.968Z,99469.84
2022-08-30T10:08:22.147Z,99463.56
2022-08-30T10:10:59.672Z,99467.00
2022-08-30T10:13:45.027Z,99460.63
2022-08-30T10:16:43.172Z,99460.59
2022-08-30T10:19:50.382Z,99468.72
2022-08-30T10:22:25.502Z,99462.19
2022-08-30T10:25:02.925Z,99447.41
2022-08-30T10:27:36.899Z,99450.31
2022-08-30T10:30:14.148Z,99448.00
2022-08-30T10:32:51.579Z,99446.91
2022-08-30T10:35:29.038Z,99450.59
2022-08-30T10:38:09.419Z,99444.75
2022-08-30T10:41:03.306Z,99445.06
2022-08-30T10:43:54.232Z,99438.44
2022-08-30T10:46:30.891Z,99435.84
2022-08-30T10:49:01.829Z,99432.63
2022-08-30T10:51:39.998Z,99433.59
2022-08-30T10:57:20.231Z,99429.06
2022-08-30T11:00:13.902Z,99426.41
2022-08-30T11:02:59.250Z,99416.97
2022-08-30T11:05:46.125Z,99417.56
2022-08-30T11:08:42.070Z,99418.06
2022-08-30T11:11:27.868Z,99411.06
2022-08-30T11:14:05.442Z,99408.59
2022-08-30T11:16:45.100Z,99408.91
2022-08-30T11:19:39.119Z,99401.50
2022-08-30T11:22:22.093Z,99389.25
2022-08-30T11:25:10.590Z,99393.06
2022-08-30T11:27:53.999Z,99386.81
2022-08-30T11:30:27.384Z,99384.72
2022-08-30T11:33:07.877Z,99385.53
2022-08-30T11:35:48.060Z,99390.25
2022-08-30T11:38:22.129Z,99382.78
2022-08-30T11:40:55.189Z,99375.13
2022-08-30T11:43:40.385Z,99368.22
2022-08-30T11:49:10.571Z,99365.88
2022-08-30T11:51:38.623Z,99361.81
2022-08-30T11:54:24.262Z,99357.78
2022-08-30T11:57:17.599Z,99358.13
2022-08-30T11:59:52.747Z,99344.47
2022-08-30T12:03:02.717Z,99344.66
2022-08-30T12:05:41.366Z,99338.44
2022-08-30T12:08:20.647Z,99339.34
2022-08-30T12:10:54.649Z,99330.53
2022-08-30T12:13:38.427Z,99330.25
2022-08-30T12:16:11.804Z,99320.97
2022-08-30T12:18:44.553Z,99316.53
2022-08-30T12:21:21.347Z,99321.03
2022-08-30T12:24:10.107Z,99312.34
2022-08-30T12:26:41.285Z,99310.88
2022-08-30T12:29:25.977Z,99309.50
2022-08-30T12:32:22.340Z,99315.78
2022-08-30T12:34:55.245Z,99302.25
2022-08-30T12:37:25.049Z,99309.75
2022-08-30T12:40:12.444Z,99314.06
2022-08-30T12:42:50.398Z,99302.53
2022-08-30T12:45:23.732Z,99307.06
2022-08-30T12:48:13.457Z,99300.25
2022-08-30T12:50:52.700Z,99299.63
2022-08-30T12:53:46.827Z,99303.84
2022-08-30T12:56:18.977Z,99296.88
2022-08-30T12:58:53.586Z,99285.69
2022-08-30T13:01:29.560Z,99292.03
2022-08-30T13:04:18.946Z,99295.09
2022-08-30T13:06:50.982Z,99295.06
2022-08-30T13:09:32.225Z,99290.00
2022-08-30T13:12:02.156Z,99293.50
2022-08-30T13:14:37.346Z,99281.06
2022-08-30T13:17:11.328Z,99289.41
2022-08-30T13:19:48.026Z,99268.56
2022-08-30T13:22:30.621Z,99271.63
2022-08-30T13:24:58.066Z,99270.50
2022-08-30T13:27:27.016Z,99268.34
2022-08-30T13:29:55.109Z,99264.72
2022-08-30T13:32:23.930Z,99264.31
2022-08-30T13:34:50.990Z,99264.63
2022-08-30T13:40:14.226Z,99249.13
2022-08-30T13:42:43.484Z,99247.25
2022-08-30T13:48:00.676Z,99229.63
2022-08-30T13:50:28.126Z,99241.88
2022-08-30T13:52:58.958Z,99239.34
2022-08-30T13:55:25.937Z,99245.31
2022-08-30T13:57:54.803Z,99232.72
2022-08-30T14:00:24.922Z,99230.19
2022-08-30T14:02:59.759Z,99233.56
2022-08-30T14:05:54.716Z,99227.97
2022-08-30T14:11:16.254Z,99216.38
2022-08-30T14:16:34.860Z,99230.50
2022-08-30T14:19:02.195Z,99230.13
2022-08-30T14:21:29.873Z,99234.84
2022-08-30T14:23:59.015Z,99229.66
2022-08-30T14:26:32.364Z,99237.63
2022-08-30T14:29:02.142Z,99211.63
2022-08-30T14:31:30.443Z,99211.97
2022-08-30T14:34:30.093Z,99213.84
2022-08-30T14:37:00.142Z,99200.78
2022-08-30T14:39:27.949Z,99212.47
2022-08-30T14:41:57.938Z,99188.03
2022-08-30T14:47:47.697Z,99189.28
2022-08-30T14:50:15.686Z,99200.69
2022-08-30T14:52:45.307Z,99200.78
2022-08-30T14:55:14.277Z,99191.31
2022-08-30T14:57:42.467Z,99183.28
2022-08-30T15:00:13.466Z,99178.66
2022-08-30T15:02:42.083Z,99203.91
2022-08-30T15:05:10.113Z,99184.09
2022-08-30T15:07:38.334Z,99189.66
2022-08-30T15:10:08.604Z,99183.72
2022-08-30T15:12:36.075Z,99198.28
2022-08-30T15:15:04.621Z,99186.47
2022-08-30T15:17:33.652Z,99206.41
2022-08-30T15:20:01.301Z,99200.16
2022-08-30T15:22:28.523Z,99200.41
2022-08-30T15:24:57.054Z,99185.59
2022-08-30T15:27:25.493Z,99186.84
2022-08-30T15:29:53.750Z,99185.72
2022-08-30T15:32:22.540Z,99192.63
2022-08-30T15:34:55.876Z,99181.19
2022-08-30T15:37:27.561Z,99194.00
2022-08-30T15:39:56.201Z,99193.75
2022-08-30T15:42:23.383Z,99191.16
2022-08-30T15:44:54.907Z,99204.56
2022-08-30T15:47:23.558Z,99205.56
2022-08-30T15:50:03.221Z,99205.44
2022-08-30T15:52:30.790Z,99214.38
2022-08-30T15:54:58.139Z,99212.47
2022-08-30T15:57:25.489Z,99210.16
2022-08-30T15:59:54.724Z,99213.00
2022-08-30T16:02:22.498Z,99204.47
2022-08-30T16:04:55.295Z,99200.56
2022-08-30T16:07:32.271Z,99210.19
2022-08-30T16:09:59.599Z,99214.81
2022-08-30T16:12:26.533Z,99215.78
2022-08-30T16:14:53.623Z,99212.91
2022-08-30T16:17:20.655Z,99210.56
2022-08-30T16:19:47.946Z,99217.69
2022-08-30T16:22:19.527Z,99214.31
2022-08-30T16:24:49.865Z,99220.00
2022-08-30T16:27:17.087Z,99219.63
2022-08-30T16:29:44.084Z,99209.31
2022-08-30T16:32:11.346Z,99217.50
2022-08-30T16:34:38.363Z,99214.13
2022-08-30T16:37:05.546Z,99211.56
2022-08-30T16:39:32.567Z,99210.00
2022-08-30T16:42:03.103Z,99212.66
2022-08-30T16:44:30.315Z,99213.72
2022-08-30T16:46:57.654Z,99208.69
2022-08-30T16:49:25.548Z,99204.41
2022-08-30T16:51:53.148Z,99207.00
2022-08-30T16:54:20.423Z,99210.72
2022-08-30T16:56:47.635Z,99198.69
2022-08-30T16:59:14.985Z,99204.28
2022-08-30T17:01:42.686Z,99206.06
2022-08-30T17:04:11.255Z,99200.88
2022-08-30T17:06:40.352Z,99201.91
2022-08-30T17:09:08.518Z,99204.72
2022-08-30T17:11:37.569Z,99198.63
2022-08-30T17:14:08.200Z,99203.53
2022-08-30T17:16:36.948Z,99195.78
2022-08-30T17:19:05.174Z,99206.69
2022-08-30T17:21:32.659Z,99208.78
2022-08-30T17:24:01.828Z,99209.84
2022-08-30T17:26:35.716Z,99211.00
2022-08-30T17:29:05.678Z,99212.03
2022-08-30T17:31:35.058Z,99218.38
2022-08-30T17:34:04.150Z,99229.94
2022-08-30T17:36:36.507Z,99228.50
2022-08-30T17:39:11.221Z,99239.31
2022-08-30T17:41:49.946Z,99227.25
2022-08-30T17:44:25.499Z,99243.66
2022-08-30T17:46:53.978Z,99252.50
2022-08-30T17:49:21.438Z,99253.31
2022-08-30T17:51:56.371Z,99264.84
2022-08-30T17:54:25.822Z,99256.09
2022-08-30T17:56:53.817Z,99252.47
2022-08-30T17:59:25.098Z,99258.59
2022-08-30T18:01:52.906Z,99264.84
2022-08-30T18:04:20.534Z,99268.50
2022-08-30T18:06:48.206Z,99283.47
2022-08-30T18:09:16.207Z,99287.09
2022-08-30T18:11:43.142Z,99290.00
2022-08-30T18:14:11.545Z,99284.81
2022-08-30T18:16:49.714Z,99281.41
2022-08-30T18:19:20.509Z,99280.63
2022-08-30T18:21:47.496Z,99289.38
2022-08-30T18:24:16.927Z,99285.06
2022-08-30T18:26:44.161Z,99287.69
2022-08-30T18:29:11.558Z,99282.44
2022-08-30T18:31:39.306Z,99291.28
2022-08-30T18:34:12.421Z,99287.16
2022-08-30T18:36:40.666Z,99295.03
2022-08-30T18:39:08.646Z,99286.00
2022-08-30T18:41:43.071Z,99290.13
2022-08-30T18:44:26.732Z,99284.16
2022-08-30T18:47:00.222Z,99278.50
2022-08-30T18:49:28.602Z,99279.38
2022-08-30T18:51:56.156Z,99277.19
2022-08-30T18:54:29.616Z,99284.84
2022-08-30T18:56:58.765Z,99266.66
2022-08-30T18:59:35.733Z,99287.28
2022-08-30T19:02:07.549Z,99265.56
2022-08-30T19:04:38.038Z,99258.50
2022-08-30T19:07:11.915Z,99265.34
2022-08-30T19:09:42.144Z,99274.91
2022-08-30T19:15:01.463Z,99267.66
2022-08-30T19:17:40.753Z,99265.19
2022-08-30T19:20:10.941Z,99284.78
2022-08-30T19:23:03.707Z,99273.50
2022-08-30T19:25:27.752Z,99248.47
2022-08-30T19:27:56.842Z,99265.63
2022-08-30T19:30:29.784Z,99244.22
2022-08-30T19:32:59.643Z,99238.06
2022-08-30T19:35:30.291Z,99243.31
2022-08-30T19:37:59.357Z,99269.25
2022-08-30T19:40:26.881Z,99259.81
2022-08-30T19:42:55.193Z,99252.97
2022-08-30T19:45:23.464Z,99240.16
2022-08-30T19:47:53.636Z,99235.09
2022-08-30T19:50:22.207Z,99255.91
2022-08-30T19:52:54.078Z,99267.34
2022-08-30T19:55:29.999Z,99246.63
2022-08-30T19:57:59.091Z,99266.69
2022-08-30T20:00:26.432Z,99270.38
2022-08-30T20:02:53.347Z,99261.78
2022-08-30T20:05:21.715Z,99268.09
2022-08-30T20:07:51.515Z,99270.00
2022-08-30T20:10:20.767Z,99266.44
2022-08-30T20:12:52.954Z,99270.84
2022-08-30T20:15:20.447Z,99259.47
2022-08-30T20:18:14.393Z,99266.56
2022-08-30T20:20:37.075Z,99263.25
2022-08-30T20:23:05.457Z,99263.25
2022-08-30T20:24:32.124Z,99263.34
2022-08-30T20:25:32.958Z,99270.19
2022-08-30T20:28:00.563Z,99263.16
2022-08-30T20:30:27.544Z,99270.56
2022-08-30T20:32:54.833Z,99271.63
2022-08-30T20:35:23.804Z,99261.38
2022-08-30T20:37:51.194Z,99273.63
2022-08-30T20:40:19.099Z,99279.28
2022-08-30T20:42:46.593Z,99271.59
2022-08-30T20:45:16.464Z,99272.19
2022-08-30T20:47:43.727Z,99273.28
2022-08-30T20:50:14.033Z,99272.69
2022-08-30T20:52:41.802Z,99276.22
2022-08-30T20:55:10.343Z,99275.97
2022-08-30T20:57:37.796Z,99267.28
2022-08-30T21:00:08.171Z,99270.69
2022-08-30T21:02:37.073Z,99272.47
2022-08-30T21:05:11.691Z,99274.28
2022-08-30T21:07:39.521Z,99276.13
2022-08-30T21:10:06.971Z,99275.38
2022-08-30T21:12:34.192Z,99279.13
2022-08-30T21:15:15.335Z,99275.59
2022-08-30T21:17:48.451Z,99272.28
2022-08-30T21:20:15.445Z,99271.94
2022-08-30T21:22:42.646Z,99260.38
2022-08-30T21:25:10.161Z,99271.47
2022-08-30T21:27:37.642Z,99272.28
2022-08-30T21:30:06.171Z,99268.59
2022-08-30T21:32:33.223Z,99265.09
2022-08-30T21:35:18.469Z,99264.25
2022-08-30T21:37:45.652Z,99270.69
2022-08-30T21:40:14.938Z,99280.19
2022-08-30T21:42:42.199Z,99264.31
2022-08-30T21:45:13.958Z,99263.66
2022-08-30T21:47:42.421Z,99264.31
2022-08-30T21:50:09.914Z,99256.56
2022-08-30T21:52:37.882Z,99270.66
2022-08-30T21:55:05.593Z,99255.69
2022-08-30T21:57:33.189Z,99265.13
2022-08-30T22:00:00.340Z,99254.72
2022-08-30T22:02:29.224Z,99253.00
2022-08-30T22:04:56.435Z,99251.25
2022-08-30T22:07:23.666Z,99246.13
2022-08-30T22:09:50.878Z,99256.53
2022-08-30T22:12:18.077Z,99233.16
2022-08-30T22:14:45.067Z,99243.81
2022-08-30T22:17:12.799Z,99232.16
2022-08-30T22:19:40.034Z,99241.88
2022-08-30T22:22:07.287Z,99239.03
2022-08-30T22:24:34.538Z,99239.00
2022-08-30T22:27:03.157Z,99231.81
2022-08-30T22:29:30.743Z,99230.94
2022-08-30T22:31:57.996Z,99222.19
2022-08-30T22:34:25.570Z,99225.66
2022-08-30T22:36:52.692Z,99208.94
2022-08-30T22:39:19.798Z,99220.16
2022-08-30T22:41:47.485Z,99218.47
2022-08-30T22:44:14.735Z,99205.44
2022-08-30T22:46:42.288Z,99213.34
2022-08-30T22:49:10.316Z,99210.72
2022-08-30T22:51:38.635Z,99213.34
2022-08-30T22:54:07.699Z,99207.34
2022-08-30T22:56:36.903Z,99221.00
2022-08-30T22:59:05.217Z,99226.91
2022-08-30T23:01:37.838Z,99200.59
2022-08-30T23:04:11.385Z,99198.22
2022-08-30T23:06:38.564Z,99208.66
2022-08-30T23:09:07.116Z,99217.25
2022-08-30T23:11:36.986Z,99208.59
2022-08-30T23:14:05.655Z,99214.44
2022-08-30T23:16:33.954Z,99206.59
2022-08-30T23:19:04.623Z,99196.97
2022-08-30T23:21:32.277Z,99194.28
2022-08-30T23:24:18.694Z,99195.88
2022-08-30T23:27:05.610Z,99187.06
2022-08-30T23:29:52.726Z,99188.78
2022-08-30T23:32:39.529Z,99187.84
2022-08-30T23:35:29.660Z,99179.06
2022-08-30T23:38:17.594Z,99172.00
2022-08-30T23:41:03.764Z,99176.38
2022-08-30T23:43:49.754Z,99172.88
2022-08-30T23:46:36.117Z,99181.56
2022-08-30T23:49:22.412Z,99179.81
2022-08-30T23:52:08.295Z,99173.06
2022-08-30T23:54:57.583Z,99186.81
2022-08-30T23:57:44.675Z,99185.03
